Time,TemperatureF,DewpointF,PressureIn,WindDirection,WindDirectionDegrees,WindSpeedMPH,WindSpeedGustMPH,Humidity,HourlyPrecipIn,Conditions,Clouds,dailyrainin,SoftwareType,DateUTC
2013-01-08 00:02:00,63.0,62.0,-100.00,South,171,0.0,5.0,97,0.00,,,0.02,,2013-01-08 10:02:00,
2013-01-08 00:11:00,64.0,63.0,-100.00,SE,133,0.0,5.0,97,0.00,,,0.02,,2013-01-08 10:11:00,
2013-01-08 00:33:00,64.0,63.0,-100.00,SE,133,0.0,5.0,97,0.00,,,0.02,,2013-01-08 10:33:00,
2013-01-08 00:42:00,64.0,63.0,-100.00,SE,133,0.0,5.0,97,0.00,,,0.02,,2013-01-08 10:42:00,
2013-01-08 00:52:00,64.0,63.0,-100.00,SE,133,0.0,5.0,97,0.00,,,0.02,,2013-01-08 10:52:00,
2013-01-08 01:02:00,64.0,63.0,-100.00,SE,133,0.0,5.0,97,0.00,,,0.02,,2013-01-08 11:02:00,
2013-01-08 01:11:00,64.0,63.0,-100.00,South,185,0.0,4.0,95,0.00,,,0.02,,2013-01-08 11:11:00,
2013-01-08 01:33:00,64.0,63.0,-100.00,South,185,0.0,4.0,95,0.00,,,0.02,,2013-01-08 11:33:00,
2013-01-08 01:42:00,64.0,63.0,-100.00,South,185,0.0,4.0,95,0.00,,,0.02,,2013-01-08 11:42:00,
2013-01-08 01:53:00,64.0,63.0,-100.00,South,185,0.0,4.0,95,0.00,,,0.02,,2013-01-08 11:53:00,
2013-01-08 02:02:00,64.0,63.0,-100.00,South,185,0.0,4.0,95,0.00,,,0.02,,2013-01-08 12:02:00,
2013-01-08 02:11:00,61.0,59.0,-100.00,South,184,0.0,4.0,93,0.00,,,0.02,,2013-01-08 12:11:00,
2013-01-08 02:33:00,61.0,59.0,-100.00,South,184,0.0,4.0,93,0.00,,,0.02,,2013-01-08 12:33:00,
2013-01-08 02:43:00,61.0,59.0,-100.00,South,184,0.0,4.0,93,0.00,,,0.02,,2013-01-08 12:43:00,
2013-01-08 02:53:00,61.0,59.0,-100.00,South,184,0.0,4.0,93,0.00,,,0.02,,2013-01-08 12:53:00,
2013-01-08 03:02:00,61.0,59.0,-100.00,South,184,0.0,4.0,93,0.00,,,0.02,,2013-01-08 13:02:00,
2013-01-08 03:11:00,63.0,62.0,-100.00,South,180,0.0,3.0,95,0.00,,,0.02,,2013-01-08 13:11:00,
2013-01-08 03:33:00,63.0,62.0,-100.00,South,180,0.0,3.0,95,0.00,,,0.02,,2013-01-08 13:33:00,
2013-01-08 03:43:00,63.0,62.0,-100.00,South,180,0.0,3.0,95,0.00,,,0.02,,2013-01-08 13:43:00,
2013-01-08 03:53:00,63.0,62.0,-100.00,South,180,0.0,3.0,95,0.00,,,0.02,,2013-01-08 13:53:00,
2013-01-08 04:02:00,63.0,62.0,-100.00,South,180,0.0,3.0,95,0.00,,,0.02,,2013-01-08 14:02:00,
2013-01-08 04:11:00,61.0,59.0,-100.00,South,179,0.0,2.0,94,0.00,,,0.02,,2013-01-08 14:11:00,
2013-01-08 04:43:00,61.0,59.0,-100.00,South,179,0.0,2.0,94,0.00,,,0.02,,2013-01-08 14:43:00,
2013-01-08 04:53:00,61.0,59.0,-100.00,South,179,0.0,2.0,94,0.00,,,0.02,,2013-01-08 14:53:00,
2013-01-08 05:02:00,61.0,59.0,-100.00,South,179,0.0,2.0,94,0.00,,,0.02,,2013-01-08 15:02:00,
2013-01-08 05:11:00,61.0,60.0,-100.00,SSE,157,0.0,3.0,95,0.00,,,0.02,,2013-01-08 15:11:00,
2013-01-08 05:33:00,61.0,60.0,-100.00,SSE,157,0.0,3.0,95,0.00,,,0.02,,2013-01-08 15:33:00,
2013-01-08 05:43:00,61.0,60.0,-100.00,SSE,157,0.0,3.0,95,0.00,,,0.02,,2013-01-08 15:43:00,
2013-01-08 05:53:00,61.0,60.0,-100.00,SSE,157,0.0,3.0,95,0.00,,,0.02,,2013-01-08 15:53:00,
2013-01-08 06:02:00,61.0,60.0,-100.00,SSE,157,0.0,3.0,95,0.00,,,0.02,,2013-01-08 16:02:00,
2013-01-08 06:11:00,62.0,59.0,-100.00,ESE,114,0.0,0.0,91,0.00,,,0.02,,2013-01-08 16:11:00,
2013-01-08 06:34:00,62.0,59.0,-100.00,ESE,114,0.0,0.0,91,0.00,,,0.02,,2013-01-08 16:34:00,
2013-01-08 06:43:00,62.0,59.0,-100.00,ESE,114,0.0,0.0,91,0.00,,,0.02,,2013-01-08 16:43:00,
2013-01-08 06:53:00,62.0,59.0,-100.00,ESE,114,0.0,0.0,91,0.00,,,0.02,,2013-01-08 16:53:00,
2013-01-08 07:02:00,62.0,59.0,-100.00,ESE,114,0.0,0.0,91,0.00,,,0.02,,2013-01-08 17:02:00,
2013-01-08 07:11:00,62.0,59.0,-100.00,NNE,30,0.0,0.0,90,0.00,,,-99.99,,2013-01-08 17:11:00,
2013-01-08 07:43:00,62.0,59.0,-100.00,NNE,30,0.0,0.0,90,0.00,,,-99.99,,2013-01-08 17:43:00,
2013-01-08 07:53:00,62.0,59.0,-100.00,NNE,30,0.0,0.0,90,0.00,,,-99.99,,2013-01-08 17:53:00,
2013-01-08 08:03:00,62.0,59.0,-100.00,NNE,30,0.0,0.0,90,0.00,,,-99.99,,2013-01-08 18:03:00,
2013-01-08 08:11:00,64.0,62.0,-100.00,South,174,0.0,0.0,94,0.00,,,0.02,,2013-01-08 18:11:00,
2013-01-08 08:33:00,64.0,62.0,-100.00,South,174,0.0,0.0,94,0.00,,,0.02,,2013-01-08 18:33:00,
2013-01-08 08:43:00,64.0,62.0,-100.00,South,174,0.0,0.0,94,0.00,,,0.02,,2013-01-08 18:43:00,
2013-01-08 08:53:00,64.0,62.0,-100.00,South,174,0.0,0.0,94,0.00,,,0.02,,2013-01-08 18:53:00,
2013-01-08 09:02:00,64.0,62.0,-100.00,South,174,0.0,0.0,94,0.00,,,0.02,,2013-01-08 19:02:00,
2013-01-08 09:11:00,70.0,61.0,-100.00,East,91,0.0,0.0,72,0.00,,,-99.99,,2013-01-08 19:11:00,
2013-01-08 09:43:00,70.0,61.0,-100.00,East,91,0.0,0.0,72,0.00,,,-99.99,,2013-01-08 19:43:00,
2013-01-08 09:53:00,70.0,61.0,-100.00,East,91,0.0,0.0,72,0.00,,,-99.99,,2013-01-08 19:53:00,
2013-01-08 10:02:00,70.0,61.0,-100.00,East,91,0.0,0.0,72,0.00,,,-99.99,,2013-01-08 20:02:00,
2013-01-08 10:11:00,71.0,63.0,-100.00,South,177,0.0,4.0,76,0.00,,,0.02,,2013-01-08 20:11:00,
2013-01-08 10:33:00,71.0,63.0,-100.00,South,177,0.0,4.0,76,0.00,,,0.02,,2013-01-08 20:33:00,
2013-01-08 10:43:00,71.0,63.0,-100.00,South,177,0.0,4.0,76,0.00,,,0.02,,2013-01-08 20:43:00,
2013-01-08 10:53:00,71.0,63.0,-100.00,South,177,0.0,4.0,76,0.00,,,0.02,,2013-01-08 20:53:00,
2013-01-08 11:02:00,71.0,63.0,-100.00,South,177,0.0,4.0,76,0.00,,,0.02,,2013-01-08 21:02:00,
2013-01-08 11:11:00,73.0,62.0,-100.00,WSW,241,1.0,6.0,68,0.00,,,0.02,,2013-01-08 21:11:00,
2013-01-08 11:43:00,73.0,62.0,-100.00,WSW,241,1.0,6.0,68,0.00,,,0.02,,2013-01-08 21:43:00,
2013-01-08 11:53:00,73.0,62.0,-100.00,WSW,241,1.0,6.0,68,0.00,,,0.02,,2013-01-08 21:53:00,
2013-01-08 12:02:00,73.0,62.0,-100.00,WSW,241,1.0,6.0,68,0.00,,,0.02,,2013-01-08 22:02:00,
2013-01-08 12:11:00,76.0,65.0,-100.00,NW,318,0.0,5.0,69,0.00,,,0.02,,2013-01-08 22:11:00,
2013-01-08 12:33:00,76.0,65.0,-100.00,NW,318,0.0,5.0,69,0.00,,,0.02,,2013-01-08 22:33:00,
2013-01-08 12:43:00,76.0,65.0,-100.00,NW,318,0.0,5.0,69,0.00,,,0.02,,2013-01-08 22:43:00,
2013-01-08 12:53:00,76.0,65.0,-100.00,NW,318,0.0,5.0,69,0.00,,,0.02,,2013-01-08 22:53:00,
2013-01-08 13:02:00,76.0,65.0,-100.00,NW,318,0.0,5.0,69,0.00,,,0.02,,2013-01-08 23:02:00,
2013-01-08 13:11:00,76.0,62.0,-100.00,WNW,296,0.0,5.0,61,0.00,,,0.01,,2013-01-08 23:11:00,
2013-01-08 13:33:00,76.0,62.0,-100.00,WNW,296,0.0,5.0,61,0.00,,,0.01,,2013-01-08 23:33:00,
2013-01-08 13:43:00,76.0,62.0,-100.00,WNW,296,0.0,5.0,61,0.00,,,0.01,,2013-01-08 23:43:00,
2013-01-08 13:53:00,76.0,62.0,-100.00,WNW,296,0.0,5.0,61,0.00,,,0.01,,2013-01-08 23:53:00,
2013-01-08 14:02:00,76.0,62.0,-100.00,WNW,296,0.0,5.0,61,0.00,,,0.01,,2013-01-09 00:02:00,
2013-01-08 14:11:00,76.0,61.0,-100.00,West,270,1.0,9.0,60,0.00,,,0.00,,2013-01-09 00:11:00,
2013-01-08 14:43:00,76.0,61.0,-100.00,West,270,1.0,9.0,60,0.00,,,0.00,,2013-01-09 00:43:00,
2013-01-08 14:52:00,76.0,61.0,-100.00,West,270,1.0,9.0,60,0.00,,,0.00,,2013-01-09 00:52:00,
2013-01-08 15:02:00,76.0,61.0,-100.00,West,270,1.0,9.0,60,0.00,,,0.00,,2013-01-09 01:02:00,
2013-01-08 15:11:00,77.0,62.0,-100.00,WNW,300,2.0,8.0,60,0.00,,,0.00,,2013-01-09 01:11:00,
2013-01-08 15:33:00,77.0,62.0,-100.00,WNW,300,2.0,8.0,60,0.00,,,0.00,,2013-01-09 01:33:00,
2013-01-08 15:42:00,77.0,62.0,-100.00,WNW,300,2.0,8.0,60,0.00,,,0.00,,2013-01-09 01:42:00,
2013-01-08 15:52:00,77.0,62.0,-100.00,WNW,300,2.0,8.0,60,0.00,,,0.00,,2013-01-09 01:52:00,
2013-01-08 16:02:00,77.0,62.0,-100.00,WNW,300,2.0,8.0,60,0.00,,,0.00,,2013-01-09 02:02:00,
2013-01-08 16:11:00,71.0,63.0,-100.00,NW,312,0.0,8.0,77,0.00,,,0.00,,2013-01-09 02:11:00,
2013-01-08 16:33:00,71.0,63.0,-100.00,NW,312,0.0,8.0,77,0.00,,,0.00,,2013-01-09 02:33:00,
2013-01-08 16:43:00,71.0,63.0,-100.00,NW,312,0.0,8.0,77,0.00,,,0.00,,2013-01-09 02:43:00,
2013-01-08 16:53:00,71.0,63.0,-100.00,NW,312,0.0,8.0,77,0.00,,,0.00,,2013-01-09 02:53:00,
2013-01-08 17:02:00,71.0,63.0,-100.00,NW,312,0.0,8.0,77,0.00,,,0.00,,2013-01-09 03:02:00,
2013-01-08 17:11:00,70.0,65.0,-100.00,SSW,192,0.0,4.0,83,0.01,,,0.01,,2013-01-09 03:11:00,
2013-01-08 17:33:00,70.0,65.0,-100.00,SSW,192,0.0,4.0,83,0.01,,,0.01,,2013-01-09 03:33:00,
2013-01-08 17:43:00,70.0,65.0,-100.00,SSW,192,0.0,4.0,83,0.01,,,0.01,,2013-01-09 03:43:00,
2013-01-08 17:52:00,70.0,65.0,-100.00,SSW,192,0.0,4.0,83,0.01,,,0.01,,2013-01-09 03:52:00,
2013-01-08 18:02:00,70.0,65.0,-100.00,SSW,192,0.0,4.0,83,0.01,,,0.01,,2013-01-09 04:02:00,
2013-01-08 18:11:00,70.0,64.0,-100.00,East,95,0.0,3.0,81,0.00,,,0.01,,2013-01-09 04:11:00,
2013-01-08 18:33:00,70.0,64.0,-100.00,East,95,0.0,3.0,81,0.00,,,0.01,,2013-01-09 04:33:00,
2013-01-08 18:43:00,70.0,64.0,-100.00,East,95,0.0,3.0,81,0.00,,,0.01,,2013-01-09 04:43:00,
2013-01-08 18:52:00,70.0,64.0,-100.00,East,95,0.0,3.0,81,0.00,,,0.01,,2013-01-09 04:52:00,
2013-01-08 19:03:00,70.0,64.0,-100.00,East,95,0.0,3.0,81,0.00,,,0.01,,2013-01-09 05:03:00,
2013-01-08 19:11:00,65.0,62.0,-100.00,West,273,0.0,5.0,90,0.00,,,0.01,,2013-01-09 05:11:00,
2013-01-08 19:33:00,65.0,62.0,-100.00,West,273,0.0,5.0,90,0.00,,,0.01,,2013-01-09 05:33:00,
2013-01-08 19:43:00,65.0,62.0,-100.00,West,273,0.0,5.0,90,0.00,,,0.01,,2013-01-09 05:43:00,
2013-01-08 19:52:00,65.0,62.0,-100.00,West,273,0.0,5.0,90,0.00,,,0.01,,2013-01-09 05:52:00,
2013-01-08 20:02:00,65.0,62.0,-100.00,West,273,0.0,5.0,90,0.00,,,0.01,,2013-01-09 06:02:00,
2013-01-08 20:11:00,66.0,63.0,-100.00,SSE,166,0.0,5.0,90,0.00,,,0.01,,2013-01-09 06:11:00,
2013-01-08 20:32:00,66.0,63.0,-100.00,SSE,166,0.0,5.0,90,0.00,,,0.01,,2013-01-09 06:32:00,
2013-01-08 20:42:00,66.0,63.0,-100.00,SSE,166,0.0,5.0,90,0.00,,,0.01,,2013-01-09 06:42:00,
2013-01-08 20:52:00,66.0,63.0,-100.00,SSE,166,0.0,5.0,90,0.00,,,0.01,,2013-01-09 06:52:00,
2013-01-08 21:02:00,66.0,63.0,-100.00,SSE,166,0.0,5.0,90,0.00,,,0.01,,2013-01-09 07:02:00,
2013-01-08 21:11:00,65.0,63.0,-100.00,SE,143,0.0,4.0,92,0.00,,,0.01,,2013-01-09 07:11:00,
2013-01-08 21:32:00,65.0,63.0,-100.00,SE,143,0.0,4.0,92,0.00,,,0.01,,2013-01-09 07:32:00,
2013-01-08 21:42:00,65.0,63.0,-100.00,SE,143,0.0,4.0,92,0.00,,,0.01,,2013-01-09 07:42:00,
2013-01-08 21:52:00,65.0,63.0,-100.00,SE,143,0.0,4.0,92,0.00,,,0.01,,2013-01-09 07:52:00,
2013-01-08 22:02:00,65.0,63.0,-100.00,SE,143,0.0,4.0,92,0.00,,,0.01,,2013-01-09 08:02:00,
2013-01-08 22:11:00,64.0,62.0,-100.00,South,188,0.0,4.0,93,0.00,,,0.01,,2013-01-09 08:11:00,
2013-01-08 22:32:00,64.0,62.0,-100.00,South,188,0.0,4.0,93,0.00,,,0.01,,2013-01-09 08:32:00,
2013-01-08 22:43:00,64.0,62.0,-100.00,South,188,0.0,4.0,93,0.00,,,0.01,,2013-01-09 08:43:00,
2013-01-08 22:53:00,64.0,62.0,-100.00,South,188,0.0,4.0,93,0.00,,,0.01,,2013-01-09 08:53:00,
2013-01-08 23:02:00,64.0,62.0,-100.00,South,188,0.0,4.0,93,0.00,,,0.01,,2013-01-09 09:02:00,
2013-01-08 23:11:00,64.0,63.0,-100.00,South,175,0.0,4.0,95,0.00,,,0.01,,2013-01-09 09:11:00,
2013-01-08 23:32:00,64.0,63.0,-100.00,South,175,0.0,4.0,95,0.00,,,0.01,,2013-01-09 09:32:00,
2013-01-08 23:42:00,64.0,63.0,-100.00,South,175,0.0,4.0,95,0.00,,,0.01,,2013-01-09 09:42:00,
2013-01-08 23:53:00,64.0,63.0,-100.00,South,175,0.0,4.0,95,0.00,,,0.01,,2013-01-09 09:53:00,